Time;durP1;ratioP1;P1;durP2;ratioP2;P2;SDS_P1;SDS_P2;PMS_P1;PMS_P2;Temp;Humidity;BMP_temperature;BMP_pressure;BME280_temperature;BME280_humidity;BME280_pressure;Samples;Min_cycle;Max_cycle;Signal;HPM_P1;HPM_P2
2024/02/10 00:00:38;;;;;;;27.02;18.52;;;10.60;94.50;;;;;;4099667;29;20048;-79
2024/02/10 00:02:41;;;;;;;26.02;16.85;;;10.60;94.50;;;;;;4100568;28;20055;-78
2024/02/10 00:04:44;;;;;;;24.23;16.90;;;10.60;94.50;;;;;;4100706;28;20404;-77
2024/02/10 00:06:46;;;;;;;25.00;17.55;;;10.60;94.50;;;;;;4100128;29;20544;-78
2024/02/10 00:08:48;;;;;;;24.27;16.23;;;10.70;94.30;;;;;;4100017;29;20134;-79
2024/02/10 00:10:51;;;;;;;20.73;15.57;;;10.70;94.20;;;;;;4112932;28;20051;-79
2024/02/10 00:12:54;;;;;;;24.25;16.75;;;10.70;94.30;;;;;;4115557;28;20055;-78
2024/02/10 00:14:58;;;;;;;24.35;17.38;;;10.70;94.20;;;;;;4115454;28;20051;-78
2024/02/10 00:17:00;;;;;;;26.80;18.50;;;10.60;94.30;;;;;;4106328;28;20087;-76
2024/02/10 00:19:08;;;;;;;28.40;18.55;;;10.60;94.40;;;;;;4099842;29;20055;-77
2024/02/10 00:21:10;;;;;;;28.00;18.73;;;10.60;94.50;;;;;;4101251;29;20059;-77
2024/02/10 00:23:13;;;;;;;26.38;18.48;;;10.50;94.50;;;;;;4101289;29;20055;-79
2024/02/10 00:25:15;;;;;;;25.50;17.73;;;10.50;94.70;;;;;;4101354;29;20087;-78
2024/02/10 00:27:17;;;;;;;23.60;17.27;;;10.50;94.70;;;;;;4101466;28;20359;-77
2024/02/10 00:29:22;;;;;;;27.75;18.90;;;10.50;94.70;;;;;;4112667;28;20131;-75
2024/02/10 00:31:24;;;;;;;27.23;18.10;;;10.50;94.70;;;;;;4101916;29;20087;-79
2024/02/10 00:33:25;;;;;;;25.92;17.58;;;10.50;94.80;;;;;;4101490;29;20102;-76
2024/02/10 00:35:29;;;;;;;28.67;19.60;;;10.50;95.00;;;;;;4101778;29;20102;-76
2024/02/10 00:37:30;;;;;;;26.92;19.02;;;10.40;95.00;;;;;;4101894;29;20051;-76
2024/02/10 00:39:31;;;;;;;28.70;20.38;;;10.40;95.10;;;;;;4101561;29;20103;-79
2024/02/10 00:41:33;;;;;;;31.95;21.50;;;10.30;95.20;;;;;;4101826;29;20110;-78
2024/02/10 00:43:37;;;;;;;28.77;21.05;;;10.20;95.20;;;;;;4101783;29;20051;-79
2024/02/10 00:45:39;;;;;;;29.17;21.00;;;10.20;95.50;;;;;;4085928;29;20058;-78
2024/02/10 00:47:44;;;;;;;30.67;21.73;;;10.10;95.80;;;;;;4086273;29;20048;-77
2024/02/10 00:49:48;;;;;;;32.03;21.77;;;10.00;96.10;;;;;;4092922;28;20043;-77
2024/02/10 00:51:54;;;;;;;28.52;19.77;;;10.00;96.10;;;;;;4101610;29;20048;-76
2024/02/10 00:53:55;;;;;;;29.33;19.95;;;10.10;96.10;;;;;;4101617;29;20055;-78
2024/02/10 00:55:57;;;;;;;27.17;19.73;;;10.10;95.80;;;;;;4101659;28;20047;-79
2024/02/10 00:58:02;;;;;;;27.33;19.48;;;10.10;95.70;;;;;;4101161;28;20047;-79
2024/02/10 01:00:07;;;;;;;29.60;20.42;;;10.10;95.60;;;;;;4101381;29;20055;-79
2024/02/10 01:02:08;;;;;;;28.25;19.98;;;10.20;95.90;;;;;;4101577;29;20054;-78
2024/02/10 01:04:12;;;;;;;26.77;19.67;;;10.10;95.60;;;;;;4102093;28;20054;-79
2024/02/10 01:06:15;;;;;;;27.13;19.42;;;10.10;95.60;;;;;;4117238;28;20098;-77
2024/02/10 01:08:19;;;;;;;25.33;18.52;;;10.10;95.50;;;;;;4116777;28;20051;-78
2024/02/10 01:10:20;;;;;;;25.77;18.80;;;10.10;95.50;;;;;;4100990;29;20056;-78
2024/02/10 01:12:22;;;;;;;24.40;18.25;;;10.20;95.40;;;;;;4101583;29;20082;-79
2024/02/10 01:14:29;;;;;;;25.55;18.70;;;10.10;95.40;;;;;;4101069;29;20051;-77
2024/02/10 01:16:32;;;;;;;25.02;17.85;;;10.10;95.50;;;;;;4101321;29;20054;-79
2024/02/10 01:18:36;;;;;;;23.33;17.33;;;10.10;95.50;;;;;;4101243;29;20057;-79
2024/02/10 01:20:38;;;;;;;22.75;17.67;;;10.10;95.40;;;;;;4100906;29;20106;-79
2024/02/10 01:22:41;;;;;;;25.45;18.77;;;10.10;95.50;;;;;;4101255;29;20047;-78
2024/02/10 01:24:45;;;;;;;25.05;18.25;;;10.10;95.30;;;;;;4114423;28;20408;-78
2024/02/10 01:26:49;;;;;;;22.08;16.60;;;10.10;95.30;;;;;;4102446;28;20048;-76
2024/02/10 01:28:51;;;;;;;22.48;16.88;;;10.10;95.30;;;;;;4100690;29;20401;-77
2024/02/10 01:30:53;;;;;;;21.92;16.77;;;10.20;95.30;;;;;;4100768;29;20051;-76
2024/02/10 01:32:57;;;;;;;22.42;15.95;;;10.20;95.20;;;;;;4100830;29;20055;-77
2024/02/10 01:35:03;;;;;;;21.73;16.23;;;10.20;95.10;;;;;;4101095;29;20096;-77
2024/02/10 01:37:05;;;;;;;22.05;16.40;;;10.20;95.00;;;;;;4101335;29;20103;-76
2024/02/10 01:39:07;;;;;;;23.52;16.17;;;10.20;95.00;;;;;;4101174;29;20099;-77
2024/02/10 01:41:11;;;;;;;21.42;16.08;;;10.30;94.90;;;;;;4101027;29;20051;-76
2024/02/10 01:43:13;;;;;;;21.98;15.25;;;10.30;94.70;;;;;;4101359;29;20051;-77
2024/02/10 01:45:17;;;;;;;20.83;15.32;;;10.30;94.70;;;;;;4101077;29;20051;-75
2024/02/10 01:47:20;;;;;;;19.77;14.75;;;10.30;94.60;;;;;;4100935;29;20142;-76
2024/02/10 01:49:22;;;;;;;19.73;15.05;;;10.40;94.50;;;;;;4101028;28;20082;-76
2024/02/10 01:51:25;;;;;;;20.65;15.00;;;10.40;94.50;;;;;;4101208;29;20048;-76
2024/02/10 01:53:27;;;;;;;20.40;14.32;;;10.40;94.40;;;;;;4101278;28;20126;-75
2024/02/10 01:55:30;;;;;;;19.30;15.20;;;10.40;94.40;;;;;;4101367;28;20528;-77
2024/02/10 01:57:34;;;;;;;20.17;14.50;;;10.40;94.30;;;;;;4101131;28;20437;-77
2024/02/10 01:59:36;;;;;;;18.83;13.88;;;10.40;94.20;;;;;;4100934;29;20043;-77
2024/02/10 02:01:39;;;;;;;18.25;13.55;;;10.50;94.10;;;;;;4100652;28;20051;-78
2024/02/10 02:03:43;;;;;;;20.90;14.30;;;10.50;94.00;;;;;;4100816;29;20110;-77
2024/02/10 02:05:45;;;;;;;18.85;13.10;;;10.50;93.90;;;;;;4085124;29;20066;-78
2024/02/10 02:07:48;;;;;;;17.30;12.85;;;10.50;93.80;;;;;;4085113;29;20048;-78
2024/02/10 02:09:49;;;;;;;19.70;13.20;;;10.50;93.80;;;;;;4093822;29;20051;-78
2024/02/10 02:11:51;;;;;;;17.90;13.15;;;10.50;93.70;;;;;;4100832;29;20053;-76
2024/02/10 02:13:58;;;;;;;18.65;13.07;;;10.50;93.70;;;;;;4100496;29;20416;-77
2024/02/10 02:16:00;;;;;;;20.40;14.85;;;10.50;93.70;;;;;;4100843;29;20072;-79
2024/02/10 02:18:02;;;;;;;20.33;14.63;;;10.40;93.80;;;;;;4100416;28;20524;-77
2024/02/10 02:20:06;;;;;;;21.05;15.02;;;10.50;93.80;;;;;;4099692;29;20107;-79
2024/02/10 02:22:09;;;;;;;21.20;15.57;;;10.40;93.80;;;;;;4100297;29;20129;-79
2024/02/10 02:24:11;;;;;;;19.90;14.35;;;10.40;93.80;;;;;;4100274;29;20481;-79
2024/02/10 02:26:13;;;;;;;20.95;15.38;;;10.40;93.90;;;;;;4099960;29;20055;-79
2024/02/10 02:28:16;;;;;;;21.88;15.85;;;10.40;93.90;;;;;;4100333;29;20051;-77
2024/02/10 02:30:18;;;;;;;19.77;14.27;;;10.40;93.90;;;;;;4100031;29;20082;-79
2024/02/10 02:32:20;;;;;;;20.92;15.40;;;10.40;93.90;;;;;;4100252;29;20059;-78
2024/02/10 02:34:21;;;;;;;22.48;15.52;;;10.40;93.80;;;;;;4100057;29;20557;-79
2024/02/10 02:36:23;;;;;;;21.73;15.40;;;10.40;93.80;;;;;;4100227;29;20047;-79
2024/02/10 02:38:25;;;;;;;22.58;15.90;;;10.30;93.80;;;;;;4100256;29;20103;-80
2024/02/10 02:40:29;;;;;;;23.48;16.45;;;10.30;93.70;;;;;;4111681;28;20058;-80
2024/02/10 02:42:31;;;;;;;20.85;15.35;;;10.30;93.70;;;;;;4115875;28;20047;-78
2024/02/10 02:44:32;;;;;;;20.98;14.77;;;10.30;93.70;;;;;;4113901;28;20097;-79
2024/02/10 02:46:35;;;;;;;20.73;16.00;;;10.30;93.50;;;;;;4100141;29;20047;-77
2024/02/10 02:48:37;;;;;;;21.13;14.82;;;10.30;93.50;;;;;;4100029;29;20106;-77
2024/02/10 02:50:40;;;;;;;23.35;16.15;;;10.30;93.60;;;;;;4099940;29;20114;-78
2024/02/10 02:52:43;;;;;;;22.30;16.15;;;10.20;93.60;;;;;;4100105;29;20056;-78
2024/02/10 02:54:47;;;;;;;22.60;16.42;;;10.30;93.50;;;;;;4099851;29;20061;-79
2024/02/10 02:56:54;;;;;;;23.35;16.10;;;10.20;93.40;;;;;;4100109;29;20382;-78
2024/02/10 02:58:56;;;;;;;22.02;16.13;;;10.20;93.50;;;;;;4100856;28;20811;-78
2024/02/10 03:01:02;;;;;;;23.40;17.05;;;10.20;93.50;;;;;;4099298;29;20477;-79
2024/02/10 03:03:03;;;;;;;21.50;15.88;;;10.30;93.50;;;;;;4099783;29;20047;-77
2024/02/10 03:05:06;;;;;;;22.75;16.27;;;10.20;93.60;;;;;;4099471;29;20055;-78
2024/02/10 03:07:08;;;;;;;24.25;16.17;;;10.20;93.40;;;;;;4099669;29;20118;-78
2024/02/10 03:09:11;;;;;;;22.40;15.90;;;10.20;93.40;;;;;;4099588;29;20099;-76
2024/02/10 03:11:17;;;;;;;23.75;17.25;;;10.20;93.40;;;;;;4106074;28;20295;-76
2024/02/10 03:13:20;;;;;;;24.88;17.88;;;10.10;93.40;;;;;;4115695;28;20416;-75
2024/02/10 03:15:22;;;;;;;25.13;18.02;;;10.00;93.50;;;;;;4117991;28;20047;-78
2024/02/10 03:17:23;;;;;;;23.20;16.45;;;10.00;93.50;;;;;;4118574;28;20046;-76
2024/02/10 03:19:24;;;;;;;24.23;16.90;;;10.00;93.50;;;;;;4114496;28;20051;-77
2024/02/10 03:21:27;;;;;;;22.67;16.10;;;10.00;93.40;;;;;;4113979;28;20378;-78
2024/02/10 03:23:29;;;;;;;24.13;17.17;;;10.00;93.30;;;;;;4103552;28;20481;-76
2024/02/10 03:25:31;;;;;;;23.50;16.05;;;10.00;93.30;;;;;;4102795;28;20110;-78
2024/02/10 03:27:33;;;;;;;23.60;16.13;;;10.00;93.40;;;;;;4106601;28;20051;-78
2024/02/10 03:29:35;;;;;;;22.70;16.65;;;10.00;93.30;;;;;;4102522;29;20438;-80
2024/02/10 03:31:37;;;;;;;23.30;17.08;;;10.00;93.30;;;;;;4102844;29;20059;-80
2024/02/10 03:33:39;;;;;;;24.92;16.65;;;9.90;93.40;;;;;;4102613;29;20565;-79
2024/02/10 03:35:41;;;;;;;21.90;15.63;;;9.90;93.60;;;;;;4102967;29;20047;-79
2024/02/10 03:37:43;;;;;;;23.90;15.48;;;9.90;93.40;;;;;;4102657;29;20223;-79
2024/02/10 03:39:45;;;;;;;21.55;16.13;;;9.90;93.10;;;;;;4102574;29;20051;-77
2024/02/10 03:41:46;;;;;;;21.50;15.65;;;9.80;92.90;;;;;;4102510;29;20052;-79
2024/02/10 03:43:48;;;;;;;32.88;17.60;;;9.80;92.90;;;;;;4102635;29;20107;-79
2024/02/10 03:45:50;;;;;;;31.58;16.80;;;9.80;93.20;;;;;;4102677;29;20055;-78
2024/02/10 03:48:04;;;;;;;22.95;16.45;;;9.80;93.20;;;;;;4102887;29;20089;-78
2024/02/10 03:50:06;;;;;;;23.58;15.57;;;9.80;93.20;;;;;;4102472;29;20481;-79
2024/02/10 03:52:08;;;;;;;22.73;15.93;;;9.80;93.50;;;;;;4102644;29;20166;-78
2024/02/10 03:54:12;;;;;;;23.23;16.13;;;9.70;93.60;;;;;;4102511;29;20378;-79
2024/02/10 03:56:14;;;;;;;23.60;14.80;;;9.70;93.50;;;;;;4102656;29;20409;-79
2024/02/10 03:58:17;;;;;;;22.70;15.75;;;9.70;93.60;;;;;;4102151;29;20535;-79
2024/02/10 04:00:25;;;;;;;23.08;14.98;;;9.60;93.30;;;;;;4102314;29;20049;-79
2024/02/10 04:02:28;;;;;;;21.45;15.55;;;9.70;93.30;;;;;;4102405;29;20047;-79
2024/02/10 04:04:30;;;;;;;22.63;15.70;;;9.70;93.20;;;;;;4102323;29;20189;-79
2024/02/10 04:06:32;;;;;;;21.55;14.90;;;9.60;93.10;;;;;;4102075;29;20055;-78
2024/02/10 04:08:34;;;;;;;26.25;16.73;;;9.60;93.40;;;;;;4102253;29;20449;-79
2024/02/10 04:10:36;;;;;;;26.30;16.02;;;9.50;93.30;;;;;;4103047;29;20055;-78
2024/02/10 04:12:38;;;;;;;24.25;16.60;;;9.40;93.20;;;;;;4103823;29;20051;-76
2024/02/10 04:14:40;;;;;;;22.27;15.15;;;9.30;93.30;;;;;;4102479;29;20083;-77
2024/02/10 04:16:41;;;;;;;20.88;14.68;;;9.30;93.50;;;;;;4102064;29;20485;-77
2024/02/10 04:18:45;;;;;;;20.38;14.13;;;9.40;93.40;;;;;;4101704;29;20044;-79
2024/02/10 04:20:46;;;;;;;20.33;14.35;;;9.40;93.20;;;;;;4102030;29;20106;-78
2024/02/10 04:22:47;;;;;;;20.00;14.80;;;9.50;93.10;;;;;;4102008;29;20461;-78
2024/02/10 04:24:53;;;;;;;19.55;14.30;;;9.50;93.00;;;;;;4101336;28;20075;-79
2024/02/10 04:26:55;;;;;;;19.48;13.95;;;9.50;93.10;;;;;;4102036;29;20429;-79
2024/02/10 04:28:56;;;;;;;19.15;13.65;;;9.50;93.10;;;;;;4101781;29;20111;-77
2024/02/10 04:30:57;;;;;;;18.05;13.70;;;9.50;93.10;;;;;;4101886;29;20047;-79
2024/02/10 04:32:59;;;;;;;17.95;13.30;;;9.50;93.00;;;;;;4101666;29;20051;-79
2024/02/10 04:35:01;;;;;;;18.33;13.73;;;9.50;93.00;;;;;;4101560;29;20102;-78
2024/02/10 04:37:05;;;;;;;17.52;12.98;;;9.60;93.00;;;;;;4101774;29;20284;-79
2024/02/10 04:39:07;;;;;;;16.88;12.98;;;9.50;92.80;;;;;;4101580;29;20130;-79
2024/02/10 04:41:08;;;;;;;20.23;14.70;;;9.50;92.90;;;;;;4101854;29;20047;-79
2024/02/10 04:43:11;;;;;;;17.98;13.50;;;9.50;92.80;;;;;;4101776;29;20047;-79
2024/02/10 04:45:26;;;;;;;18.45;13.73;;;9.50;93.00;;;;;;4101681;29;20047;-79
2024/02/10 04:47:28;;;;;;;17.48;13.40;;;9.50;93.10;;;;;;4101485;29;20099;-78
2024/02/10 04:49:30;;;;;;;19.23;14.27;;;9.50;93.10;;;;;;4101571;29;20099;-77
2024/02/10 04:51:35;;;;;;;20.33;13.88;;;9.50;92.90;;;;;;4101544;29;20462;-78
2024/02/10 04:53:36;;;;;;;19.67;14.57;;;9.50;92.80;;;;;;4101565;29;20079;-78
2024/02/10 04:55:41;;;;;;;17.45;13.18;;;9.50;92.80;;;;;;4101625;29;20047;-78
2024/02/10 04:57:42;;;;;;;21.20;14.65;;;9.50;92.80;;;;;;4101519;29;20107;-78
2024/02/10 04:59:44;;;;;;;18.08;12.40;;;9.50;93.00;;;;;;4101448;29;20069;-79
2024/02/10 05:01:46;;;;;;;17.35;13.20;;;9.40;92.80;;;;;;4102477;28;20061;-80
2024/02/10 05:03:48;;;;;;;19.38;13.95;;;9.30;92.70;;;;;;4101316;28;20107;-78
2024/02/10 05:05:50;;;;;;;18.77;13.52;;;9.20;93.00;;;;;;4101113;29;20043;-78
2024/02/10 05:07:55;;;;;;;21.10;14.07;;;9.20;93.30;;;;;;4101391;29;20228;-79
2024/02/10 05:10:00;;;;;;;23.02;16.10;;;9.00;93.60;;;;;;4109607;28;20100;-78
2024/02/10 05:12:03;;;;;;;19.97;14.83;;;8.90;93.90;;;;;;4114332;28;20054;-79
2024/02/10 05:14:05;;;;;;;20.00;14.30;;;9.00;94.00;;;;;;4102439;28;20350;-79
2024/02/10 05:16:10;;;;;;;20.60;13.88;;;9.10;93.70;;;;;;4117291;28;20090;-78
2024/02/10 05:18:12;;;;;;;21.95;15.02;;;9.10;93.30;;;;;;4117372;28;20054;-76
2024/02/10 05:20:17;;;;;;;24.08;16.83;;;8.90;93.70;;;;;;4106643;28;20043;-76
2024/02/10 05:22:21;;;;;;;26.80;18.20;;;8.80;94.60;;;;;;4107875;29;20051;-77
2024/02/10 05:24:25;;;;;;;22.40;16.52;;;8.90;94.80;;;;;;4107043;29;20047;-77
2024/02/10 05:26:34;;;;;;;25.08;17.35;;;9.00;94.70;;;;;;4108243;29;20142;-78
2024/02/10 05:28:35;;;;;;;37.45;18.42;;;9.10;94.60;;;;;;4107890;28;20111;-77
2024/02/10 05:30:36;;;;;;;25.08;17.83;;;9.10;94.50;;;;;;4108706;29;20083;-78
2024/02/10 05:32:39;;;;;;;30.63;19.70;;;9.10;94.60;;;;;;4106429;29;20047;-78
2024/02/10 05:34:48;;;;;;;33.63;19.63;;;9.00;94.70;;;;;;4102258;29;20119;-79
2024/02/10 05:36:50;;;;;;;31.88;19.63;;;8.90;94.70;;;;;;4100076;28;20136;-79
2024/02/10 05:38:52;;;;;;;49.95;22.08;;;8.90;94.80;;;;;;4100756;29;20073;-79
2024/02/10 05:40:55;;;;;;;47.42;21.50;;;8.80;94.80;;;;;;4101185;29;20485;-79
2024/02/10 05:42:58;;;;;;;51.05;20.60;;;8.70;95.20;;;;;;4100950;29;20508;-79
2024/02/10 05:44:59;;;;;;;37.67;21.05;;;8.70;95.30;;;;;;4100784;29;20051;-79
2024/02/10 05:47:02;;;;;;;33.10;21.05;;;8.80;95.10;;;;;;4100678;29;20390;-79
2024/02/10 05:49:09;;;;;;;29.38;19.70;;;8.90;95.20;;;;;;4100745;29;20102;-78
2024/02/10 05:51:12;;;;;;;29.92;19.92;;;8.90;95.10;;;;;;4100811;29;20051;-79
2024/02/10 05:53:14;;;;;;;29.95;19.50;;;9.00;94.90;;;;;;4100828;29;20107;-79
2024/02/10 05:55:20;;;;;;;29.95;19.52;;;9.10;94.80;;;;;;4100714;29;20047;-79
2024/02/10 05:57:24;;;;;;;28.55;18.35;;;9.10;94.70;;;;;;4100567;28;20050;-76
2024/02/10 05:59:26;;;;;;;28.58;18.40;;;9.10;94.40;;;;;;4100560;28;20457;-79
2024/02/10 06:01:27;;;;;;;28.08;18.58;;;9.10;94.40;;;;;;4100671;29;20448;-78
2024/02/10 06:03:30;;;;;;;28.65;18.23;;;9.20;94.30;;;;;;4108013;28;20042;-79
2024/02/10 06:05:31;;;;;;;27.52;17.55;;;9.20;94.30;;;;;;4100537;29;20504;-78
2024/02/10 06:07:35;;;;;;;25.27;16.83;;;9.20;94.10;;;;;;4100686;29;20047;-79
2024/02/10 06:09:37;;;;;;;27.33;17.65;;;9.30;94.00;;;;;;4100295;29;20536;-79
2024/02/10 06:11:39;;;;;;;27.88;17.30;;;9.20;94.20;;;;;;4100561;29;20457;-78
2024/02/10 06:13:42;;;;;;;29.58;18.75;;;9.30;93.90;;;;;;4100212;29;20085;-79
2024/02/10 06:15:46;;;;;;;27.02;17.73;;;9.30;93.90;;;;;;4100655;29;20398;-76
2024/02/10 06:17:52;;;;;;;28.08;16.98;;;9.30;93.90;;;;;;4100646;29;20051;-75
2024/02/10 06:19:53;;;;;;;26.27;17.38;;;9.30;93.90;;;;;;4100417;29;20585;-74
2024/02/10 06:21:55;;;;;;;26.42;17.88;;;9.30;93.90;;;;;;4100284;29;20047;-76
2024/02/10 06:24:00;;;;;;;26.55;17.13;;;9.40;93.90;;;;;;4100521;29;20039;-75
2024/02/10 06:26:02;;;;;;;32.72;21.48;;;9.40;93.90;;;;;;4101184;29;20146;-75
2024/02/10 06:28:04;;;;;;;29.48;19.55;;;9.40;93.80;;;;;;4101342;28;20487;-76
2024/02/10 06:30:13;;;;;;;27.65;17.05;;;9.40;93.80;;;;;;4101325;29;20469;-76
2024/02/10 06:32:15;;;;;;;23.35;16.08;;;9.40;93.80;;;;;;4092724;28;20047;-76
2024/02/10 06:34:17;;;;;;;26.95;16.27;;;9.40;93.60;;;;;;4096836;29;20131;-77
2024/02/10 06:36:19;;;;;;;25.58;16.52;;;9.40;93.50;;;;;;4092038;29;20540;-76
2024/02/10 06:38:21;;;;;;;27.67;17.83;;;9.40;93.40;;;;;;4101994;29;20052;-79
2024/02/10 06:40:22;;;;;;;27.67;17.60;;;9.40;93.60;;;;;;4098896;29;20048;-79
2024/02/10 06:42:25;;;;;;;28.02;17.52;;;9.40;93.60;;;;;;4100153;29;20501;-78
2024/02/10 06:44:28;;;;;;;26.60;17.08;;;9.40;93.60;;;;;;4099888;29;20050;-76
2024/02/10 06:46:31;;;;;;;28.58;18.23;;;9.40;93.60;;;;;;4092806;28;20160;-77
2024/02/10 06:48:33;;;;;;;29.60;18.35;;;9.40;93.50;;;;;;4092366;28;20051;-78
2024/02/10 06:50:36;;;;;;;29.63;19.13;;;9.30;93.60;;;;;;4097917;29;20088;-78
2024/02/10 06:52:38;;;;;;;29.63;18.77;;;9.30;93.50;;;;;;4100363;29;20055;-77
2024/02/10 06:54:42;;;;;;;34.90;18.85;;;9.40;93.50;;;;;;4091886;29;20382;-78
2024/02/10 06:56:44;;;;;;;71.93;20.67;;;9.40;93.40;;;;;;4088686;29;20048;-78
2024/02/10 06:58:49;;;;;;;46.92;20.23;;;9.30;93.30;;;;;;4100255;29;20047;-78
2024/02/10 07:00:51;;;;;;;39.92;20.80;;;9.20;93.60;;;;;;4092435;29;20050;-79
2024/02/10 07:02:56;;;;;;;34.10;19.33;;;9.20;93.80;;;;;;4092629;28;20099;-77
2024/02/10 07:04:58;;;;;;;34.83;19.70;;;9.20;93.70;;;;;;4094986;29;20051;-78
2024/02/10 07:07:03;;;;;;;31.60;19.77;;;9.20;93.60;;;;;;4099505;29;20156;-78
2024/02/10 07:09:05;;;;;;;45.03;20.73;;;9.30;93.60;;;;;;4089262;29;20126;-76
2024/02/10 07:11:06;;;;;;;51.40;20.73;;;9.20;93.50;;;;;;4094286;29;20094;-79
2024/02/10 07:13:08;;;;;;;38.63;20.40;;;9.20;93.60;;;;;;4093248;29;20047;-76
2024/02/10 07:15:12;;;;;;;33.15;19.25;;;9.20;93.70;;;;;;4089813;29;20043;-76
2024/02/10 07:17:16;;;;;;;48.72;19.70;;;9.20;93.70;;;;;;4092881;29;20489;-75
2024/02/10 07:19:19;;;;;;;34.42;19.83;;;9.20;93.50;;;;;;4097018;29;20054;-78
2024/02/10 07:21:21;;;;;;;31.45;18.55;;;9.30;93.60;;;;;;4093372;29;20044;-76
2024/02/10 07:23:26;;;;;;;35.30;20.10;;;9.30;93.60;;;;;;4094931;29;20051;-76
2024/02/10 07:25:31;;;;;;;32.88;20.50;;;9.30;93.80;;;;;;4087557;29;20131;-77
2024/02/10 07:27:33;;;;;;;29.58;18.75;;;9.30;93.40;;;;;;4095079;29;20114;-75
2024/02/10 07:29:35;;;;;;;27.83;18.00;;;9.30;93.50;;;;;;4088901;29;20056;-80
2024/02/10 07:31:38;;;;;;;26.63;18.13;;;9.40;93.40;;;;;;4093964;28;20055;-79
2024/02/10 07:33:40;;;;;;;25.70;17.35;;;9.30;93.50;;;;;;4076624;28;20054;-77
2024/02/10 07:35:49;;;;;;;25.58;17.48;;;9.30;93.70;;;;;;4073661;29;20055;-78
2024/02/10 07:37:51;;;;;;;23.50;15.80;;;9.30;93.60;;;;;;4076407;29;20138;-78
2024/02/10 07:39:53;;;;;;;25.40;16.67;;;9.30;93.60;;;;;;4080957;29;20528;-77
2024/02/10 07:41:56;;;;;;;35.22;16.92;;;9.40;93.40;;;;;;4077578;29;20048;-75
2024/02/10 07:43:59;;;;;;;110.60;20.88;;;9.40;93.30;;;;;;4090102;29;20058;-78
2024/02/10 07:46:01;;;;;;;44.78;20.55;;;9.10;93.40;;;;;;4081513;29;20075;-79
2024/02/10 07:48:06;;;;;;;45.40;21.48;;;8.90;94.50;;;;;;4087687;29;20508;-78
2024/02/10 07:50:11;;;;;;;40.50;21.00;;;9.00;94.40;;;;;;4069408;29;20126;-78
2024/02/10 07:52:14;;;;;;;35.22;19.48;;;9.00;94.20;;;;;;4073693;29;20119;-76
2024/02/10 07:54:19;;;;;;;31.00;18.67;;;9.10;94.00;;;;;;4077647;29;20452;-78
2024/02/10 07:56:21;;;;;;;32.95;18.90;;;9.10;93.90;;;;;;4076842;29;20111;-77
2024/02/10 07:58:25;;;;;;;72.57;19.48;;;9.20;93.80;;;;;;4076879;29;20044;-75
2024/02/10 08:00:30;;;;;;;26.65;18.10;;;9.20;93.70;;;;;;4060296;29;20446;-78
2024/02/10 08:02:32;;;;;;;67.85;17.83;;;9.20;93.90;;;;;;4076356;29;20127;-76
2024/02/10 08:04:34;;;;;;;98.15;19.67;;;9.20;93.70;;;;;;4067484;29;20699;-76
2024/02/10 08:06:36;;;;;;;33.90;18.67;;;9.10;93.70;;;;;;4072764;29;20044;-77
2024/02/10 08:08:40;;;;;;;36.58;18.42;;;9.00;94.00;;;;;;4075617;29;20052;-78
2024/02/10 08:10:42;;;;;;;38.17;19.13;;;9.10;94.10;;;;;;4084113;29;20131;-76
2024/02/10 08:12:45;;;;;;;42.63;19.35;;;9.10;94.20;;;;;;4082259;29;20051;-78
2024/02/10 08:14:50;;;;;;;57.50;19.75;;;9.10;94.20;;;;;;4085007;29;20066;-77
2024/02/10 08:16:53;;;;;;;49.85;19.90;;;9.10;94.20;;;;;;4084137;29;20473;-76
2024/02/10 08:18:55;;;;;;;36.30;18.80;;;9.10;94.00;;;;;;4083933;29;20048;-76
2024/02/10 08:20:57;;;;;;;70.35;18.83;;;9.10;94.00;;;;;;4070306;28;20051;-79
2024/02/10 08:22:58;;;;;;;40.28;18.33;;;9.10;93.70;;;;;;4073752;29;20048;-75
2024/02/10 08:25:04;;;;;;;36.80;18.98;;;9.10;94.10;;;;;;4067023;29;20100;-76
2024/02/10 08:27:08;;;;;;;34.10;17.35;;;9.10;94.10;;;;;;4072991;29;20059;-78
2024/02/10 08:29:10;;;;;;;25.67;16.88;;;9.10;94.00;;;;;;4072144;29;20167;-78
2024/02/10 08:31:13;;;;;;;34.85;17.38;;;9.20;94.10;;;;;;4078923;29;20470;-77
2024/02/10 08:33:18;;;;;;;24.92;17.63;;;9.20;94.00;;;;;;4072506;29;20055;-78
2024/02/10 08:35:19;;;;;;;24.42;17.50;;;9.30;93.90;;;;;;4077513;29;20468;-78
2024/02/10 08:37:21;;;;;;;23.58;17.13;;;9.30;93.80;;;;;;4079290;29;20079;-78
2024/02/10 08:39:23;;;;;;;26.08;17.25;;;9.30;93.80;;;;;;4065147;29;20056;-77
2024/02/10 08:41:27;;;;;;;27.35;17.70;;;9.30;94.00;;;;;;4072908;29;20100;-78
2024/02/10 08:43:29;;;;;;;22.77;15.82;;;9.30;94.00;;;;;;4067170;29;20043;-77
2024/02/10 08:45:31;;;;;;;25.02;16.20;;;9.40;93.90;;;;;;4071934;29;20565;-77
2024/02/10 08:47:32;;;;;;;24.95;17.05;;;9.50;93.80;;;;;;4060956;29;20051;-76
2024/02/10 08:49:35;;;;;;;26.80;16.65;;;9.50;93.70;;;;;;4065031;29;20115;-76
2024/02/10 08:51:37;;;;;;;25.27;16.40;;;9.50;93.80;;;;;;4070955;29;20114;-76
2024/02/10 08:53:38;;;;;;;24.35;15.85;;;9.50;93.70;;;;;;4080885;29;20059;-78
2024/02/10 08:55:40;;;;;;;24.23;15.95;;;9.50;93.60;;;;;;4074157;29;20140;-78
2024/02/10 08:57:46;;;;;;;24.55;15.65;;;9.50;93.60;;;;;;4080416;29;20051;-79
2024/02/10 08:59:50;;;;;;;;;;;9.60;93.60;;;;;;4082746;29;20466;-78
2024/02/10 09:01:54;;;;;;;21.42;13.90;;;9.60;93.60;;;;;;4072360;29;19974;-77
2024/02/10 09:03:56;;;;;;;19.67;13.70;;;9.50;93.50;;;;;;4078122;29;20079;-76
2024/02/10 09:05:58;;;;;;;40.00;16.67;;;9.60;93.50;;;;;;4074898;29;20099;-77
2024/02/10 09:07:59;;;;;;;25.63;16.55;;;9.40;93.80;;;;;;4082388;29;20048;-76
2024/02/10 09:10:00;;;;;;;26.95;17.23;;;9.20;94.20;;;;;;4080685;29;20075;-76
2024/02/10 09:12:03;;;;;;;25.15;15.98;;;9.20;94.60;;;;;;4081116;29;20103;-75
2024/02/10 09:14:06;;;;;;;27.90;15.75;;;9.30;94.40;;;;;;4066718;28;20111;-77
2024/02/10 09:16:08;;;;;;;24.35;15.45;;;9.40;94.20;;;;;;4079754;29;20048;-76
2024/02/10 09:18:12;;;;;;;23.08;16.40;;;9.30;94.40;;;;;;4079232;29;20565;-79
2024/02/10 09:20:14;;;;;;;22.65;15.77;;;9.30;94.50;;;;;;4075370;29;20091;-77
2024/02/10 09:22:17;;;;;;;26.67;17.33;;;9.30;94.50;;;;;;4083182;29;20043;-75
2024/02/10 09:24:18;;;;;;;22.98;15.52;;;9.30;94.70;;;;;;4082918;29;20048;-76
2024/02/10 09:26:20;;;;;;;24.83;16.10;;;9.30;94.50;;;;;;4078016;29;20052;-76
2024/02/10 09:28:22;;;;;;;25.38;16.55;;;9.40;94.40;;;;;;4082129;29;20052;-75
2024/02/10 09:30:26;;;;;;;24.00;16.08;;;9.40;94.40;;;;;;4076623;29;20470;-74
2024/02/10 09:32:28;;;;;;;25.95;16.20;;;9.30;94.90;;;;;;4077293;29;20086;-75
2024/02/10 09:34:30;;;;;;;42.13;18.83;;;9.30;94.60;;;;;;4074065;29;20277;-76
2024/02/10 09:36:32;;;;;;;30.52;18.25;;;9.20;94.90;;;;;;4078351;29;20048;-75
2024/02/10 09:38:34;;;;;;;49.90;19.73;;;9.10;95.20;;;;;;4078674;29;20554;-75
2024/02/10 09:40:36;;;;;;;78.15;21.77;;;9.00;95.00;;;;;;4080543;29;20280;-75
2024/02/10 09:42:46;;;;;;;77.45;21.60;;;8.90;95.60;;;;;;4077184;29;20151;-75
2024/02/10 09:44:49;;;;;;;107.88;33.30;;;8.70;95.80;;;;;;4083384;29;20103;-76
2024/02/10 09:46:56;;;;;;;122.43;24.50;;;8.70;96.10;;;;;;4082193;29;20059;-75
2024/02/10 09:48:59;;;;;;;246.02;31.58;;;8.70;96.30;;;;;;4081024;29;20044;-75
2024/02/10 09:51:01;;;;;;;58.13;24.35;;;8.70;96.40;;;;;;4082006;29;20048;-76
2024/02/10 09:53:04;;;;;;;47.67;23.48;;;8.60;96.60;;;;;;4082459;29;20039;-75
2024/02/10 09:55:07;;;;;;;58.42;22.85;;;8.60;96.80;;;;;;4082160;29;20091;-76
2024/02/10 09:57:12;;;;;;;256.88;86.63;;;8.50;96.80;;;;;;4076731;29;20534;-76
2024/02/10 09:59:18;;;;;;;67.82;21.40;;;8.60;96.80;;;;;;4082903;29;20083;-75
2024/02/10 10:01:20;;;;;;;196.73;55.97;;;8.50;96.80;;;;;;4082866;29;20135;-74
2024/02/10 10:03:23;;;;;;;49.95;24.05;;;8.40;97.10;;;;;;4082827;29;20043;-75
2024/02/10 10:05:25;;;;;;;64.50;23.55;;;8.40;97.60;;;;;;4082876;29;20054;-75
2024/02/10 10:07:28;;;;;;;59.35;23.75;;;8.50;97.50;;;;;;4080345;29;20048;-80
2024/02/10 10:09:30;;;;;;;38.47;22.58;;;8.60;97.30;;;;;;4081408;29;20054;-79
2024/02/10 10:11:33;;;;;;;52.55;23.70;;;8.70;97.20;;;;;;4079259;29;20047;-76
2024/02/10 10:13:37;;;;;;;53.42;23.85;;;8.70;97.20;;;;;;4081215;29;20044;-78
2024/02/10 10:15:39;;;;;;;41.92;22.20;;;8.70;97.00;;;;;;4081553;29;20126;-79
2024/02/10 10:17:42;;;;;;;44.78;22.38;;;8.80;97.00;;;;;;4080953;29;20051;-77
2024/02/10 10:19:46;;;;;;;43.00;23.80;;;8.80;96.90;;;;;;4075586;29;20051;-79
2024/02/10 10:21:49;;;;;;;43.72;21.77;;;8.80;96.80;;;;;;4078358;29;20060;-80
2024/02/10 10:23:54;;;;;;;39.42;21.60;;;8.90;96.60;;;;;;4081411;29;20470;-78
2024/02/10 10:25:56;;;;;;;39.60;22.83;;;9.00;96.70;;;;;;4079864;29;20048;-79
2024/02/10 10:27:57;;;;;;;128.65;74.40;;;9.00;96.40;;;;;;4082333;29;20103;-77